createdAt,value
2022-07-29T00:00:50.511Z,47
2022-07-29T00:02:50.730Z,47
2022-07-29T00:04:51.068Z,47
2022-07-29T00:06:50.366Z,47
2022-07-29T00:08:50.256Z,47
2022-07-29T00:10:50.127Z,47
2022-07-29T00:12:50.359Z,47
2022-07-29T00:14:50.225Z,47
2022-07-29T00:16:51.175Z,47
2022-07-29T00:18:50.377Z,47
2022-07-29T00:20:51.217Z,47
2022-07-29T00:22:50.740Z,47
2022-07-29T00:24:50.818Z,47
2022-07-29T00:26:50.562Z,47
2022-07-29T00:28:50.677Z,47
2022-07-29T00:30:50.521Z,47
2022-07-29T00:32:50.547Z,47
2022-07-29T00:34:50.126Z,46
2022-07-29T00:36:50.315Z,46
2022-07-29T00:38:50.268Z,46
2022-07-29T00:40:50.168Z,46
2022-07-29T00:42:50.081Z,46
2022-07-29T00:44:50.965Z,46
2022-07-29T00:46:50.739Z,46
2022-07-29T00:48:50.966Z,46
2022-07-29T00:50:50.082Z,46
2022-07-29T00:52:50.071Z,46
2022-07-29T00:54:50.931Z,46
2022-07-29T00:56:50.127Z,46
2022-07-29T00:58:50.968Z,46
2022-07-29T01:00:51.267Z,46
2022-07-29T01:02:50.130Z,46
2022-07-29T01:04:50.573Z,46
2022-07-29T01:06:50.937Z,46
2022-07-29T01:08:50.129Z,46
2022-07-29T01:10:50.077Z,46
2022-07-29T01:12:50.251Z,46
2022-07-29T01:14:51.062Z,46
2022-07-29T01:16:51.318Z,46
2022-07-29T01:18:50.209Z,46
2022-07-29T01:20:50.417Z,46
2022-07-29T01:22:50.654Z,46
2022-07-29T01:24:50.570Z,46
2022-07-29T01:26:50.672Z,46
2022-07-29T01:28:52.273Z,46
2022-07-29T01:30:53.474Z,46
2022-07-29T01:32:50.496Z,46
2022-07-29T01:34:50.945Z,46
2022-07-29T01:36:51.047Z,46
2022-07-29T01:38:50.979Z,46
2022-07-29T01:40:51.021Z,46
2022-07-29T01:42:50.798Z,46
2022-07-29T01:44:50.842Z,46
2022-07-29T01:46:51.472Z,46
2022-07-29T01:48:50.878Z,46
2022-07-29T01:50:50.930Z,46
2022-07-29T01:52:50.868Z,46
2022-07-29T01:54:50.775Z,46
2022-07-29T01:56:50.967Z,46
2022-07-29T01:58:53.229Z,46
2022-07-29T02:00:50.143Z,47
2022-07-29T02:02:50.974Z,47
2022-07-29T02:04:50.880Z,47
2022-07-29T02:06:50.218Z,46
2022-07-29T02:08:50.529Z,46
2022-07-29T02:10:50.394Z,46
2022-07-29T02:12:51.651Z,46
2022-07-29T02:14:50.531Z,46
2022-07-29T02:16:50.728Z,47
2022-07-29T02:18:51.022Z,47
2022-07-29T02:20:50.829Z,47
2022-07-29T02:22:50.700Z,47
2022-07-29T02:24:50.642Z,47
2022-07-29T02:26:50.776Z,48
2022-07-29T02:28:50.746Z,48
2022-07-29T02:30:51.094Z,49
2022-07-29T02:32:50.076Z,49
2022-07-29T02:34:50.309Z,49
2022-07-29T02:36:50.458Z,48
2022-07-29T02:38:50.296Z,48
2022-07-29T02:40:50.234Z,49
2022-07-29T02:42:50.055Z,49
2022-07-29T02:44:50.851Z,50
2022-07-29T02:46:51.264Z,49
2022-07-29T02:48:51.051Z,49
2022-07-29T02:50:50.984Z,50
2022-07-29T02:52:50.880Z,49
2022-07-29T02:54:50.862Z,49
2022-07-29T02:56:50.897Z,50
2022-07-29T02:58:50.768Z,50
2022-07-29T03:00:50.608Z,49
2022-07-29T03:02:50.534Z,49
2022-07-29T03:04:51.265Z,49
2022-07-29T03:06:50.510Z,51
2022-07-29T03:08:50.426Z,51
2022-07-29T03:10:50.263Z,51
2022-07-29T03:12:50.201Z,50
2022-07-29T03:14:50.018Z,50
2022-07-29T03:16:50.222Z,51
2022-07-29T03:18:50.376Z,52
2022-07-29T03:20:50.275Z,52
2022-07-29T03:22:50.149Z,53
2022-07-29T03:24:50.043Z,52
2022-07-29T03:26:50.233Z,52
2022-07-29T03:28:50.262Z,51
2022-07-29T03:30:51.765Z,51
2022-07-29T03:32:56.698Z,51
2022-07-29T03:34:50.214Z,53
2022-07-29T03:36:50.559Z,54
2022-07-29T03:38:50.450Z,54
2022-07-29T03:40:50.171Z,52
2022-07-29T03:42:50.965Z,54
2022-07-29T03:44:50.883Z,54
2022-07-29T03:46:51.371Z,53
2022-07-29T03:48:50.525Z,53
2022-07-29T03:50:50.447Z,52
2022-07-29T03:52:50.388Z,52
2022-07-29T03:54:50.434Z,52
2022-07-29T03:56:50.601Z,52
2022-07-29T03:58:50.591Z,52
2022-07-29T04:00:50.657Z,54
2022-07-29T04:02:50.796Z,55
2022-07-29T04:04:50.249Z,55
2022-07-29T04:06:50.325Z,55
2022-07-29T04:08:50.381Z,55
2022-07-29T04:10:50.415Z,55
2022-07-29T04:12:50.353Z,56
2022-07-29T04:14:50.273Z,56
2022-07-29T04:16:50.486Z,56
2022-07-29T04:18:50.461Z,56
2022-07-29T04:20:50.272Z,56
2022-07-29T04:22:50.181Z,55
2022-07-29T04:24:51.034Z,55
2022-07-29T04:26:50.455Z,55
2022-07-29T04:28:50.489Z,55
2022-07-29T04:30:50.819Z,55
2022-07-29T04:32:50.608Z,55
2022-07-29T04:34:50.161Z,55
2022-07-29T04:36:50.408Z,55
2022-07-29T04:38:50.522Z,55
2022-07-29T04:40:51.362Z,55
2022-07-29T04:42:51.038Z,55
2022-07-29T04:44:52.168Z,55
2022-07-29T04:46:50.924Z,56
2022-07-29T04:48:51.172Z,56
2022-07-29T04:50:50.293Z,57
2022-07-29T04:52:50.293Z,57
2022-07-29T04:54:50.311Z,56
2022-07-29T04:56:50.514Z,56
2022-07-29T04:58:50.202Z,56
2022-07-29T05:00:50.759Z,56
2022-07-29T05:02:54.685Z,56
2022-07-29T05:04:50.147Z,56
2022-07-29T05:06:50.381Z,56
2022-07-29T05:08:50.374Z,56
2022-07-29T05:10:50.349Z,55
2022-07-29T05:12:50.237Z,55
2022-07-29T05:14:50.344Z,55
2022-07-29T05:16:50.627Z,55
2022-07-29T05:18:50.608Z,56
2022-07-29T05:20:51.146Z,56
2022-07-29T05:22:50.213Z,56
2022-07-29T05:24:50.247Z,56
2022-07-29T05:26:50.274Z,55
2022-07-29T05:28:50.109Z,55
2022-07-29T05:30:52.040Z,54
2022-07-29T05:32:50.082Z,54
2022-07-29T05:34:52.344Z,54
2022-07-29T05:36:50.432Z,54
2022-07-29T05:38:50.370Z,54
2022-07-29T05:40:50.315Z,52
2022-07-29T05:42:50.294Z,52
2022-07-29T05:44:50.281Z,51
2022-07-29T05:46:50.781Z,50
2022-07-29T05:48:51.083Z,48
2022-07-29T05:50:50.089Z,48
2022-07-29T05:52:50.991Z,48
2022-07-29T05:54:50.901Z,48
2022-07-29T05:56:50.068Z,48
2022-07-29T05:58:50.094Z,48
2022-07-29T06:00:50.166Z,48
2022-07-29T06:02:50.979Z,48
2022-07-29T06:04:50.882Z,48
2022-07-29T06:06:50.212Z,48
2022-07-29T06:08:50.079Z,48
2022-07-29T06:10:50.951Z,48
2022-07-29T06:12:51.002Z,48
2022-07-29T06:14:54.801Z,48
2022-07-29T06:16:50.709Z,48
2022-07-29T06:18:50.576Z,47
2022-07-29T06:20:50.547Z,47
2022-07-29T06:22:52.008Z,47
2022-07-29T06:24:50.944Z,47
2022-07-29T06:26:51.030Z,47
2022-07-29T06:28:51.065Z,47
2022-07-29T06:30:51.449Z,47
2022-07-29T06:32:50.435Z,47
2022-07-29T06:34:51.877Z,47
2022-07-29T06:36:50.794Z,47
2022-07-29T06:38:53.953Z,47
2022-07-29T06:40:50.874Z,47
2022-07-29T06:42:50.748Z,46
2022-07-29T06:44:50.598Z,46
2022-07-29T06:46:50.881Z,46
2022-07-29T06:48:51.597Z,46
2022-07-29T06:50:50.758Z,46
2022-07-29T06:52:50.665Z,46
2022-07-29T06:54:50.617Z,46
2022-07-29T06:56:50.882Z,46
2022-07-29T06:58:50.824Z,46
2022-07-29T07:00:50.998Z,46
2022-07-29T07:02:50.501Z,46
2022-07-29T07:04:50.840Z,46
2022-07-29T07:06:50.230Z,46
2022-07-29T07:08:51.046Z,46
2022-07-29T07:10:50.717Z,46
2022-07-29T07:12:50.723Z,46
2022-07-29T07:14:50.718Z,46
2022-07-29T07:16:55.211Z,46
2022-07-29T07:18:50.093Z,45
2022-07-29T07:20:50.300Z,45
2022-07-29T07:22:50.834Z,45
2022-07-29T07:24:50.801Z,45
2022-07-29T07:26:50.974Z,45
2022-07-29T07:28:50.823Z,45
2022-07-29T07:30:50.835Z,45
2022-07-29T07:32:50.761Z,45
2022-07-29T07:34:51.053Z,45
2022-07-29T07:36:50.258Z,45
2022-07-29T07:38:50.342Z,45
2022-07-29T07:40:50.237Z,44
2022-07-29T07:42:51.019Z,45
2022-07-29T07:45:17.045Z,45
2022-07-29T07:46:50.100Z,45
2022-07-29T07:48:51.247Z,45
2022-07-29T07:50:50.657Z,45
2022-07-29T07:52:50.462Z,45
2022-07-29T07:54:50.524Z,45
2022-07-29T07:56:53.916Z,45
2022-07-29T07:58:51.033Z,45
2022-07-29T08:00:51.318Z,45
2022-07-29T08:02:50.513Z,45
2022-07-29T08:04:50.804Z,45
2022-07-29T08:06:50.556Z,45
2022-07-29T08:08:56.479Z,44
2022-07-29T08:10:50.345Z,44
2022-07-29T08:12:50.731Z,44
2022-07-29T08:14:50.586Z,44
2022-07-29T08:16:51.272Z,45
2022-07-29T08:18:50.390Z,45
2022-07-29T08:20:50.386Z,45
2022-07-29T08:22:50.350Z,45
2022-07-29T08:24:50.095Z,44
2022-07-29T08:26:50.282Z,44
2022-07-29T08:28:50.141Z,44
2022-07-29T08:30:52.160Z,44
2022-07-29T08:32:56.946Z,44
2022-07-29T08:34:50.395Z,44
2022-07-29T08:36:52.000Z,44
2022-07-29T08:38:51.224Z,44
2022-07-29T08:40:51.036Z,43
2022-07-29T08:42:50.051Z,43
2022-07-29T08:44:51.025Z,43
2022-07-29T08:46:50.137Z,43
2022-07-29T08:48:50.596Z,42
2022-07-29T08:50:50.600Z,42
2022-07-29T08:52:50.574Z,42
2022-07-29T08:54:50.412Z,42
2022-07-29T08:56:51.299Z,42
2022-07-29T08:58:54.371Z,41
2022-07-29T09:00:50.624Z,41
2022-07-29T09:02:50.167Z,42
2022-07-29T09:04:50.734Z,42
2022-07-29T09:06:50.969Z,41
2022-07-29T09:08:50.883Z,41
2022-07-29T09:10:50.781Z,41
2022-07-29T09:12:50.936Z,41
2022-07-29T09:14:50.835Z,41
2022-07-29T09:17:02.802Z,41
2022-07-29T09:18:50.864Z,41
2022-07-29T09:20:50.716Z,41
2022-07-29T09:22:50.694Z,41
2022-07-29T09:24:50.579Z,41
2022-07-29T09:26:50.804Z,40
2022-07-29T09:28:50.654Z,40
2022-07-29T09:30:50.717Z,40
2022-07-29T09:32:52.866Z,40
2022-07-29T09:34:50.378Z,40
2022-07-29T09:36:50.575Z,40
2022-07-29T09:38:50.622Z,40
2022-07-29T09:40:50.574Z,40
2022-07-29T09:42:50.391Z,40
2022-07-29T09:44:50.545Z,40
2022-07-29T09:46:50.803Z,40
2022-07-29T09:48:50.893Z,40
2022-07-29T09:50:50.907Z,40
2022-07-29T09:52:50.850Z,40
2022-07-29T09:54:50.766Z,40
2022-07-29T09:56:50.938Z,40
2022-07-29T09:58:50.975Z,40
2022-07-29T10:00:51.652Z,40
2022-07-29T10:02:51.067Z,41
2022-07-29T10:04:50.388Z,41
2022-07-29T10:06:50.512Z,41
2022-07-29T10:08:50.317Z,41
2022-07-29T10:10:50.286Z,41
2022-07-29T10:12:50.089Z,41
2022-07-29T10:14:50.163Z,41
2022-07-29T10:16:50.520Z,41
2022-07-29T10:18:52.938Z,41
2022-07-29T10:20:50.917Z,40
2022-07-29T10:22:54.897Z,40
2022-07-29T10:24:50.826Z,40
2022-07-29T10:26:50.046Z,40
2022-07-29T10:28:50.083Z,40
2022-07-29T10:30:50.784Z,40
2022-07-29T10:32:54.917Z,40
2022-07-29T10:34:50.221Z,40
2022-07-29T10:36:50.270Z,40
2022-07-29T10:38:50.361Z,40
2022-07-29T10:40:50.578Z,39
2022-07-29T10:42:51.886Z,39
2022-07-29T10:44:50.848Z,39
2022-07-29T10:46:50.457Z,39
2022-07-29T10:48:51.150Z,39
2022-07-29T10:50:51.189Z,39
2022-07-29T10:52:51.443Z,39
2022-07-29T10:54:50.483Z,39
2022-07-29T10:56:53.954Z,39
2022-07-29T10:58:55.130Z,39
2022-07-29T11:00:51.017Z,39
2022-07-29T11:02:52.015Z,39
2022-07-29T11:04:50.917Z,40
2022-07-29T11:06:50.886Z,39
2022-07-29T11:08:51.050Z,39
2022-07-29T11:10:51.355Z,39
2022-07-29T11:12:50.128Z,39
2022-07-29T11:14:51.006Z,39
2022-07-29T11:16:51.252Z,39
2022-07-29T11:18:50.415Z,39
2022-07-29T11:20:51.761Z,39
2022-07-29T11:22:50.071Z,39
2022-07-29T11:24:51.474Z,39
2022-07-29T11:26:51.487Z,39
2022-07-29T11:28:50.498Z,39
2022-07-29T11:30:50.213Z,39
2022-07-29T11:32:50.875Z,39
2022-07-29T11:34:50.328Z,38
2022-07-29T11:36:51.104Z,39
2022-07-29T11:38:50.114Z,39
2022-07-29T11:40:50.252Z,39
2022-07-29T11:42:53.073Z,39
2022-07-29T11:44:50.959Z,38
2022-07-29T11:46:50.939Z,39
2022-07-29T11:48:53.070Z,39
2022-07-29T11:50:50.241Z,39
2022-07-29T11:52:50.811Z,39
2022-07-29T11:55:10.465Z,39
2022-07-29T11:56:51.050Z,39
2022-07-29T11:58:52.737Z,39
2022-07-29T12:00:51.013Z,40
2022-07-29T12:02:50.168Z,39
2022-07-29T12:04:52.487Z,39
2022-07-29T12:06:51.466Z,39
2022-07-29T12:08:50.704Z,39
2022-07-29T12:10:50.433Z,39
2022-07-29T12:12:50.383Z,39
2022-07-29T12:14:51.395Z,39
2022-07-29T12:16:51.774Z,39
2022-07-29T12:18:50.779Z,39
2022-07-29T12:20:50.535Z,39
2022-07-29T12:22:50.486Z,39
2022-07-29T12:25:33.713Z,39
2022-07-29T12:26:50.946Z,40
2022-07-29T12:28:51.841Z,40
2022-07-29T12:30:52.320Z,40
2022-07-29T12:32:50.227Z,40
2022-07-29T12:34:50.710Z,40
2022-07-29T12:36:51.039Z,40
2022-07-29T12:38:56.592Z,40
2022-07-29T12:40:50.394Z,40
2022-07-29T12:42:50.215Z,40
2022-07-29T12:44:50.227Z,40
2022-07-29T12:46:50.885Z,40
2022-07-29T12:48:50.962Z,39
2022-07-29T12:50:50.911Z,39
2022-07-29T12:52:50.891Z,39
2022-07-29T12:54:52.446Z,39
2022-07-29T12:56:50.735Z,39
2022-07-29T12:58:52.040Z,39
2022-07-29T13:00:51.293Z,39
2022-07-29T13:02:50.699Z,39
2022-07-29T13:04:50.157Z,39
2022-07-29T13:06:51.687Z,39
2022-07-29T13:08:50.498Z,39
2022-07-29T13:10:50.404Z,39
2022-07-29T13:12:50.427Z,39
2022-07-29T13:14:50.278Z,39
2022-07-29T13:16:50.773Z,39
2022-07-29T13:18:50.747Z,39
2022-07-29T13:20:50.733Z,38
2022-07-29T13:22:50.782Z,38
2022-07-29T13:24:50.583Z,38
2022-07-29T13:26:50.837Z,38
2022-07-29T13:28:50.853Z,38
2022-07-29T13:30:51.100Z,38
2022-07-29T13:32:51.006Z,38
2022-07-29T13:34:50.346Z,38
2022-07-29T13:36:50.480Z,38
2022-07-29T13:38:50.393Z,38
2022-07-29T13:40:50.346Z,38
2022-07-29T13:42:50.221Z,38
2022-07-29T13:44:50.307Z,38
2022-07-29T13:46:50.733Z,38
2022-07-29T13:48:50.822Z,38
2022-07-29T13:50:50.715Z,38
2022-07-29T13:52:50.742Z,38
2022-07-29T13:54:50.694Z,38
2022-07-29T13:56:50.817Z,38
2022-07-29T13:58:50.715Z,38
2022-07-29T14:00:50.995Z,38
2022-07-29T14:02:50.946Z,38
2022-07-29T14:04:51.032Z,39
2022-07-29T14:06:50.512Z,39
2022-07-29T14:08:50.441Z,39
2022-07-29T14:10:51.866Z,39
2022-07-29T14:12:50.703Z,39
2022-07-29T14:14:50.655Z,39
2022-07-29T14:16:54.007Z,40
2022-07-29T14:18:50.903Z,40
2022-07-29T14:20:50.906Z,40
2022-07-29T14:22:50.887Z,40
2022-07-29T14:24:51.745Z,42
2022-07-29T14:26:50.481Z,45
2022-07-29T14:28:50.515Z,46
2022-07-29T14:30:50.654Z,50
2022-07-29T14:32:50.660Z,50
2022-07-29T14:34:50.200Z,53
2022-07-29T14:36:50.341Z,55
2022-07-29T14:38:50.303Z,57
2022-07-29T14:40:51.477Z,58
2022-07-29T14:42:50.519Z,58
2022-07-29T14:44:50.494Z,59
2022-07-29T14:46:50.918Z,61
2022-07-29T14:48:51.471Z,61
2022-07-29T14:50:50.574Z,61
2022-07-29T14:52:50.395Z,64
2022-07-29T14:54:50.385Z,64
2022-07-29T14:56:50.527Z,64
2022-07-29T14:58:52.557Z,64
2022-07-29T15:00:50.603Z,64
2022-07-29T15:03:03.624Z,64
2022-07-29T15:04:50.088Z,62
2022-07-29T15:06:50.401Z,63
2022-07-29T15:08:50.313Z,63
2022-07-29T15:10:50.404Z,63
2022-07-29T15:12:50.205Z,65
2022-07-29T15:14:50.445Z,67
2022-07-29T15:16:53.659Z,70
2022-07-29T15:18:50.753Z,70
2022-07-29T15:20:50.691Z,70
2022-07-29T15:22:50.736Z,70
2022-07-29T15:24:50.621Z,71
2022-07-29T15:26:50.458Z,71
2022-07-29T15:28:50.406Z,71
2022-07-29T15:30:50.421Z,71
2022-07-29T15:32:57.940Z,71
2022-07-29T15:34:50.336Z,70
2022-07-29T15:36:54.692Z,69
2022-07-29T15:38:51.403Z,69
2022-07-29T15:40:50.192Z,69
2022-07-29T15:42:50.182Z,71
2022-07-29T15:44:50.060Z,73
2022-07-29T15:46:50.315Z,73
2022-07-29T15:48:50.584Z,72
2022-07-29T15:50:50.504Z,72
2022-07-29T15:52:50.490Z,72
2022-07-29T15:54:50.416Z,72
2022-07-29T15:56:50.690Z,72
2022-07-29T15:58:50.704Z,75
2022-07-29T16:00:50.921Z,75
2022-07-29T16:02:51.203Z,75
2022-07-29T16:04:50.674Z,75
2022-07-29T16:06:50.897Z,75
2022-07-29T16:08:50.702Z,75
2022-07-29T16:10:50.603Z,75
2022-07-29T16:12:50.572Z,76
2022-07-29T16:14:50.917Z,76
2022-07-29T16:16:50.895Z,76
2022-07-29T16:18:51.009Z,77
2022-07-29T16:20:51.067Z,77
2022-07-29T16:22:50.988Z,77
2022-07-29T16:24:50.812Z,77
2022-07-29T16:26:50.312Z,76
2022-07-29T16:28:52.621Z,76
2022-07-29T16:30:50.482Z,76
2022-07-29T16:32:50.837Z,77
2022-07-29T16:34:50.226Z,76
2022-07-29T16:36:51.245Z,76
2022-07-29T16:38:50.236Z,76
2022-07-29T16:40:50.791Z,76
2022-07-29T16:42:51.016Z,76
2022-07-29T16:44:50.983Z,76
2022-07-29T16:46:59.568Z,76
2022-07-29T16:48:51.078Z,76
2022-07-29T16:50:51.010Z,76
2022-07-29T16:52:50.934Z,76
2022-07-29T16:54:50.805Z,76
2022-07-29T16:56:50.148Z,76
2022-07-29T16:58:50.985Z,77
2022-07-29T17:00:52.505Z,77
2022-07-29T17:02:50.484Z,77
2022-07-29T17:04:50.787Z,77
2022-07-29T17:06:50.742Z,78
2022-07-29T17:08:50.696Z,78
2022-07-29T17:10:50.705Z,78
2022-07-29T17:12:50.636Z,78
2022-07-29T17:14:50.627Z,79
2022-07-29T17:17:03.771Z,79
2022-07-29T17:18:50.702Z,79
2022-07-29T17:20:50.609Z,78
2022-07-29T17:22:50.607Z,78
2022-07-29T17:24:50.415Z,78
2022-07-29T17:26:50.694Z,78
2022-07-29T17:28:50.477Z,78
2022-07-29T17:30:50.490Z,79
2022-07-29T17:32:50.467Z,79
2022-07-29T17:34:50.957Z,78
2022-07-29T17:36:50.197Z,79
2022-07-29T17:38:50.094Z,79
2022-07-29T17:40:50.267Z,79
2022-07-29T17:42:50.203Z,79
2022-07-29T17:44:50.340Z,79
2022-07-29T17:46:52.527Z,78
2022-07-29T17:48:50.584Z,79
2022-07-29T17:50:50.498Z,79
2022-07-29T17:52:50.311Z,79
2022-07-29T17:54:50.324Z,78
2022-07-29T17:56:50.452Z,78
2022-07-29T17:58:50.449Z,78
2022-07-29T18:00:50.695Z,78
2022-07-29T18:02:50.982Z,78
2022-07-29T18:04:51.292Z,78
2022-07-29T18:06:50.542Z,78
2022-07-29T18:08:50.383Z,78
2022-07-29T18:10:50.292Z,79
2022-07-29T18:12:50.250Z,78
2022-07-29T18:14:50.242Z,78
2022-07-29T18:16:50.998Z,78
2022-07-29T18:18:50.958Z,78
2022-07-29T18:20:50.926Z,77
2022-07-29T18:22:50.797Z,77
2022-07-29T18:24:50.741Z,77
2022-07-29T18:26:50.895Z,77
2022-07-29T18:28:50.232Z,77
2022-07-29T18:30:51.354Z,77
2022-07-29T18:33:22.740Z,77
2022-07-29T18:34:50.966Z,77
2022-07-29T18:36:50.266Z,78
2022-07-29T18:38:50.972Z,78
2022-07-29T18:40:50.932Z,77
2022-07-29T18:42:50.927Z,77
2022-07-29T18:44:50.675Z,76
2022-07-29T18:46:51.396Z,76
2022-07-29T18:48:50.769Z,76
2022-07-29T18:50:50.746Z,76
2022-07-29T18:52:50.610Z,77
2022-07-29T18:54:50.651Z,78
2022-07-29T18:56:50.928Z,78
2022-07-29T18:58:50.914Z,78
2022-07-29T19:00:50.823Z,78
2022-07-29T19:02:51.941Z,77
2022-07-29T19:04:50.533Z,78
2022-07-29T19:06:50.720Z,78
2022-07-29T19:08:50.802Z,78
2022-07-29T19:10:50.670Z,78
2022-07-29T19:12:50.898Z,77
2022-07-29T19:14:50.737Z,77
2022-07-29T19:16:50.875Z,77
2022-07-29T19:18:50.845Z,77
2022-07-29T19:20:50.857Z,77
2022-07-29T19:22:50.789Z,77
2022-07-29T19:24:50.835Z,77
2022-07-29T19:26:50.951Z,78
2022-07-29T19:28:50.902Z,78
2022-07-29T19:30:51.309Z,78
2022-07-29T19:32:50.362Z,78
2022-07-29T19:34:51.114Z,78
2022-07-29T19:36:50.431Z,78
2022-07-29T19:38:50.675Z,78
2022-07-29T19:40:50.506Z,78
2022-07-29T19:42:50.637Z,78
2022-07-29T19:44:50.523Z,78
2022-07-29T19:46:51.132Z,78
2022-07-29T19:48:50.621Z,77
2022-07-29T19:50:50.611Z,77
2022-07-29T19:52:50.535Z,77
2022-07-29T19:54:50.367Z,77
2022-07-29T19:56:50.595Z,78
2022-07-29T19:58:53.183Z,77
2022-07-29T20:00:50.023Z,78
2022-07-29T20:02:50.392Z,78
2022-07-29T20:04:50.830Z,78
2022-07-29T20:06:50.221Z,79
2022-07-29T20:08:50.060Z,78
2022-07-29T20:10:50.319Z,78
2022-07-29T20:12:55.811Z,79
2022-07-29T20:14:50.809Z,81
2022-07-29T20:16:51.025Z,81
2022-07-29T20:18:50.926Z,81
2022-07-29T20:20:50.891Z,81
2022-07-29T20:22:51.024Z,81
2022-07-29T20:24:50.898Z,81
2022-07-29T20:26:50.210Z,81
2022-07-29T20:28:50.320Z,80
2022-07-29T20:30:51.604Z,80
2022-07-29T20:32:50.584Z,80
2022-07-29T20:34:51.011Z,80
2022-07-29T20:36:50.213Z,81
2022-07-29T20:38:50.091Z,81
2022-07-29T20:40:50.333Z,81
2022-07-29T20:42:50.045Z,82
2022-07-29T20:44:50.105Z,82
2022-07-29T20:46:50.103Z,82
2022-07-29T20:48:50.501Z,82
2022-07-29T20:50:50.551Z,82
2022-07-29T20:52:50.603Z,82
2022-07-29T20:54:50.522Z,82
2022-07-29T20:56:50.836Z,82
2022-07-29T20:58:50.875Z,82
2022-07-29T21:00:50.798Z,82
2022-07-29T21:02:51.162Z,82
2022-07-29T21:04:50.530Z,82
2022-07-29T21:06:51.819Z,82
2022-07-29T21:08:51.110Z,82
2022-07-29T21:10:50.252Z,82
2022-07-29T21:12:51.320Z,82
2022-07-29T21:14:50.143Z,82
2022-07-29T21:16:50.399Z,82
2022-07-29T21:18:50.579Z,82
2022-07-29T21:20:50.384Z,82
2022-07-29T21:22:50.404Z,82
2022-07-29T21:24:50.477Z,82
2022-07-29T21:27:22.108Z,82
2022-07-29T21:28:51.136Z,82
2022-07-29T21:30:50.054Z,82
2022-07-29T21:32:51.340Z,82
2022-07-29T21:34:50.924Z,82
2022-07-29T21:36:50.168Z,81
2022-07-29T21:38:51.041Z,81
2022-07-29T21:40:50.112Z,82
2022-07-29T21:42:51.001Z,82
2022-07-29T21:44:51.028Z,81
2022-07-29T21:46:50.128Z,81
2022-07-29T21:48:50.345Z,81
2022-07-29T21:50:50.522Z,81
2022-07-29T21:52:50.422Z,81
2022-07-29T21:54:50.290Z,81
2022-07-29T21:57:01.326Z,81
2022-07-29T21:58:50.186Z,81
2022-07-29T22:00:50.096Z,81
2022-07-29T22:02:50.999Z,81
2022-07-29T22:04:50.744Z,81
2022-07-29T22:06:50.897Z,81
2022-07-29T22:08:50.242Z,81
2022-07-29T22:10:50.266Z,81
2022-07-29T22:12:50.243Z,81
2022-07-29T22:14:50.175Z,81
2022-07-29T22:16:50.866Z,81
2022-07-29T22:18:50.811Z,80
2022-07-29T22:20:50.681Z,80
2022-07-29T22:22:50.590Z,80
2022-07-29T22:24:50.571Z,80
2022-07-29T22:26:50.781Z,81
2022-07-29T22:28:50.688Z,80
2022-07-29T22:30:51.031Z,81
2022-07-29T22:32:50.959Z,82
2022-07-29T22:34:50.643Z,82
2022-07-29T22:36:50.954Z,81
2022-07-29T22:38:52.670Z,81
2022-07-29T22:40:51.310Z,81
2022-07-29T22:42:50.265Z,81
2022-07-29T22:44:50.078Z,81
2022-07-29T22:46:50.418Z,81
2022-07-29T22:48:50.747Z,81
2022-07-29T22:50:50.900Z,80
2022-07-29T22:52:50.918Z,80
2022-07-29T22:54:50.848Z,80
2022-07-29T22:56:50.942Z,80
2022-07-29T22:58:50.898Z,80
2022-07-29T23:00:51.254Z,81
2022-07-29T23:02:50.321Z,81
2022-07-29T23:04:50.919Z,81
2022-07-29T23:06:50.178Z,82
2022-07-29T23:08:50.093Z,82
2022-07-29T23:10:50.894Z,82
2022-07-29T23:12:51.019Z,82
2022-07-29T23:14:50.096Z,82
2022-07-29T23:16:50.765Z,82
2022-07-29T23:18:52.739Z,82
2022-07-29T23:20:50.797Z,82
2022-07-29T23:22:50.884Z,82
2022-07-29T23:24:50.861Z,82
2022-07-29T23:26:51.922Z,82
2022-07-29T23:28:50.906Z,82
2022-07-29T23:30:51.217Z,82
2022-07-29T23:32:50.240Z,82
2022-07-29T23:34:50.532Z,82
2022-07-29T23:36:50.866Z,82
2022-07-29T23:38:50.743Z,82
2022-07-29T23:40:50.757Z,82
2022-07-29T23:42:50.687Z,82
2022-07-29T23:44:50.860Z,82
2022-07-29T23:46:50.801Z,82
2022-07-29T23:48:51.379Z,82
2022-07-29T23:50:50.372Z,82
2022-07-29T23:52:50.259Z,82
2022-07-29T23:54:50.183Z,82
2022-07-29T23:56:50.533Z,82
2022-07-29T23:58:50.427Z,82
